sensor_id;sensor_type;location;lat;lon;timestamp;pressure;altitude;pressure_sealevel;temperature;humidity
15674;BME280;7937;48.090;16.212;2022-07-18T00:02:45;98622.81;;;12.08;68.98
15674;BME280;7937;48.090;16.212;2022-07-18T00:05:47;98614.59;;;12.00;69.13
15674;BME280;7937;48.090;16.212;2022-07-18T00:08:49;98618.00;;;12.02;69.31
15674;BME280;7937;48.090;16.212;2022-07-18T00:11:52;98608.25;;;12.02;68.73
15674;BME280;7937;48.090;16.212;2022-07-18T00:14:54;98617.03;;;12.03;68.95
15674;BME280;7937;48.090;16.212;2022-07-18T00:17:56;98619.59;;;12.04;68.74
15674;BME280;7937;48.090;16.212;2022-07-18T00:20:58;98614.59;;;12.00;68.73
15674;BME280;7937;48.090;16.212;2022-07-18T00:24:01;98610.19;;;11.88;69.04
15674;BME280;7937;48.090;16.212;2022-07-18T00:27:04;98608.78;;;11.69;69.55
15674;BME280;7937;48.090;16.212;2022-07-18T00:30:10;98610.28;;;11.61;69.98
15674;BME280;7937;48.090;16.212;2022-07-18T00:33:12;98614.31;;;11.66;69.54
15674;BME280;7937;48.090;16.212;2022-07-18T00:36:14;98612.94;;;11.73;69.15
15674;BME280;7937;48.090;16.212;2022-07-18T00:39:16;98600.66;;;11.72;68.74
15674;BME280;7937;48.090;16.212;2022-07-18T00:42:19;98601.19;;;11.65;69.57
15674;BME280;7937;48.090;16.212;2022-07-18T00:45:22;98606.06;;;11.58;69.94
15674;BME280;7937;48.090;16.212;2022-07-18T00:48:24;98612.63;;;11.53;70.29
15674;BME280;7937;48.090;16.212;2022-07-18T00:51:26;98612.09;;;11.48;70.05
15674;BME280;7937;48.090;16.212;2022-07-18T00:54:28;98613.16;;;11.45;70.02
15674;BME280;7937;48.090;16.212;2022-07-18T00:57:33;98621.19;;;11.43;70.25
15674;BME280;7937;48.090;16.212;2022-07-18T01:00:35;98619.59;;;11.41;70.36
15674;BME280;7937;48.090;16.212;2022-07-18T01:03:56;98623.41;;;11.37;70.48
15674;BME280;7937;48.090;16.212;2022-07-18T01:06:58;98619.94;;;11.36;70.53
15674;BME280;7937;48.090;16.212;2022-07-18T01:10:00;98623.72;;;11.32;69.91
15674;BME280;7937;48.090;16.212;2022-07-18T01:13:02;98624.88;;;11.28;70.16
15674;BME280;7937;48.090;16.212;2022-07-18T01:16:04;98622.84;;;11.19;69.92
15674;BME280;7937;48.090;16.212;2022-07-18T01:19:07;98617.03;;;11.14;70.84
15674;BME280;7937;48.090;16.212;2022-07-18T01:22:12;98619.25;;;11.07;71.18
15674;BME280;7937;48.090;16.212;2022-07-18T01:25:15;98616.69;;;10.93;71.25
15674;BME280;7937;48.090;16.212;2022-07-18T01:28:18;98624.28;;;10.85;71.49
15674;BME280;7937;48.090;16.212;2022-07-18T01:31:20;98622.69;;;10.83;71.35
15674;BME280;7937;48.090;16.212;2022-07-18T01:34:23;98624.03;;;10.76;71.88
15674;BME280;7937;48.090;16.212;2022-07-18T01:37:25;98627.06;;;10.69;72.41
15674;BME280;7937;48.090;16.212;2022-07-18T01:40:27;98617.97;;;10.61;72.69
15674;BME280;7937;48.090;16.212;2022-07-18T01:43:30;98620.69;;;10.59;72.36
15674;BME280;7937;48.090;16.212;2022-07-18T01:46:32;98612.69;;;10.61;72.01
15674;BME280;7937;48.090;16.212;2022-07-18T01:49:36;98618.81;;;10.61;72.71
15674;BME280;7937;48.090;16.212;2022-07-18T01:52:39;98617.88;;;10.62;72.53
15674;BME280;7937;48.090;16.212;2022-07-18T01:55:41;98615.31;;;10.61;72.30
15674;BME280;7937;48.090;16.212;2022-07-18T01:58:43;98618.91;;;10.60;72.35
15674;BME280;7937;48.090;16.212;2022-07-18T02:01:45;98612.25;;;10.54;72.69
15674;BME280;7937;48.090;16.212;2022-07-18T02:04:47;98615.06;;;10.51;72.61
15674;BME280;7937;48.090;16.212;2022-07-18T02:08:02;98613.94;;;10.55;72.26
15674;BME280;7937;48.090;16.212;2022-07-18T02:11:04;98607.72;;;10.56;71.91
15674;BME280;7937;48.090;16.212;2022-07-18T02:14:06;98615.06;;;10.51;72.18
15674;BME280;7937;48.090;16.212;2022-07-18T02:17:08;98613.88;;;10.43;72.79
15674;BME280;7937;48.090;16.212;2022-07-18T02:20:12;98615.66;;;10.42;73.44
15674;BME280;7937;48.090;16.212;2022-07-18T02:23:14;98620.50;;;10.35;73.10
15674;BME280;7937;48.090;16.212;2022-07-18T02:26:16;98617.03;;;10.35;73.16
15674;BME280;7937;48.090;16.212;2022-07-18T02:29:19;98617.31;;;10.30;73.32
15674;BME280;7937;48.090;16.212;2022-07-18T02:32:21;98616.19;;;10.20;74.10
15674;BME280;7937;48.090;16.212;2022-07-18T02:35:24;98617.25;;;10.18;73.87
15674;BME280;7937;48.090;16.212;2022-07-18T02:38:27;98621.56;;;10.19;74.20
15674;BME280;7937;48.090;16.212;2022-07-18T02:41:29;98614.50;;;10.19;73.93
15674;BME280;7937;48.090;16.212;2022-07-18T02:44:31;98617.50;;;10.13;74.87
15674;BME280;7937;48.090;16.212;2022-07-18T02:47:34;98617.16;;;10.05;75.32
15674;BME280;7937;48.090;16.212;2022-07-18T02:50:36;98616.41;;;10.03;74.72
15674;BME280;7937;48.090;16.212;2022-07-18T02:53:38;98619.78;;;10.05;74.86
15674;BME280;7937;48.090;16.212;2022-07-18T02:56:40;98611.13;;;10.03;74.60
15674;BME280;7937;48.090;16.212;2022-07-18T02:59:42;98611.22;;;10.02;74.86
15674;BME280;7937;48.090;16.212;2022-07-18T03:02:45;98614.69;;;10.02;75.08
15674;BME280;7937;48.090;16.212;2022-07-18T03:05:47;98611.31;;;10.00;74.96
15674;BME280;7937;48.090;16.212;2022-07-18T03:08:49;98620.06;;;10.00;75.29
15674;BME280;7937;48.090;16.212;2022-07-18T03:11:51;98608.75;;;9.98;75.40
15674;BME280;7937;48.090;16.212;2022-07-18T03:14:53;98613.94;;;10.00;75.26
15674;BME280;7937;48.090;16.212;2022-07-18T03:17:55;98620.91;;;10.01;75.62
15674;BME280;7937;48.090;16.212;2022-07-18T03:20:57;98622.78;;;9.99;75.41
15674;BME280;7937;48.090;16.212;2022-07-18T03:23:59;98616.88;;;9.95;75.87
15674;BME280;7937;48.090;16.212;2022-07-18T03:27:01;98625.75;;;9.94;75.42
15674;BME280;7937;48.090;16.212;2022-07-18T03:30:03;98627.53;;;9.94;75.62
15674;BME280;7937;48.090;16.212;2022-07-18T03:33:05;98636.38;;;9.93;75.18
15674;BME280;7937;48.090;16.212;2022-07-18T03:36:07;98625.75;;;9.94;75.34
15674;BME280;7937;48.090;16.212;2022-07-18T03:39:10;98619.63;;;9.94;75.75
15674;BME280;7937;48.090;16.212;2022-07-18T03:42:12;98628.56;;;9.91;75.99
15674;BME280;7937;48.090;16.212;2022-07-18T03:45:14;98627.63;;;9.92;75.87
15674;BME280;7937;48.090;16.212;2022-07-18T03:48:16;98627.03;;;10.02;75.44
15674;BME280;7937;48.090;16.212;2022-07-18T03:51:19;98621.59;;;10.05;75.66
15674;BME280;7937;48.090;16.212;2022-07-18T03:54:22;98628.56;;;10.06;75.35
15674;BME280;7937;48.090;16.212;2022-07-18T03:57:24;98624.84;;;10.08;75.10
15674;BME280;7937;48.090;16.212;2022-07-18T04:00:26;98625.34;;;10.15;74.86
15674;BME280;7937;48.090;16.212;2022-07-18T04:03:28;98619.31;;;10.27;75.05
15674;BME280;7937;48.090;16.212;2022-07-18T04:06:30;98621.63;;;10.31;74.85
15674;BME280;7937;48.090;16.212;2022-07-18T04:09:32;98623.16;;;10.35;74.91
15674;BME280;7937;48.090;16.212;2022-07-18T04:12:44;98623.69;;;10.41;73.82
15674;BME280;7937;48.090;16.212;2022-07-18T04:15:46;98623.19;;;10.48;73.79
15674;BME280;7937;48.090;16.212;2022-07-18T04:18:48;98619.31;;;10.54;73.89
15674;BME280;7937;48.090;16.212;2022-07-18T04:21:51;98621.94;;;10.54;73.75
15674;BME280;7937;48.090;16.212;2022-07-18T04:24:53;98614.03;;;10.54;73.63
15674;BME280;7937;48.090;16.212;2022-07-18T04:27:55;98614.38;;;10.62;73.72
15674;BME280;7937;48.090;16.212;2022-07-18T04:30:58;98611.53;;;10.65;73.12
15674;BME280;7937;48.090;16.212;2022-07-18T04:34:00;98611.97;;;10.71;73.63
15674;BME280;7937;48.090;16.212;2022-07-18T04:37:02;98615.56;;;10.70;73.49
15674;BME280;7937;48.090;16.212;2022-07-18T04:40:05;98624.03;;;10.76;73.60
15674;BME280;7937;48.090;16.212;2022-07-18T04:43:08;98614.84;;;10.81;72.97
15674;BME280;7937;48.090;16.212;2022-07-18T04:46:10;98608.81;;;10.79;73.24
15674;BME280;7937;48.090;16.212;2022-07-18T04:49:12;98615.59;;;10.83;73.28
15674;BME280;7937;48.090;16.212;2022-07-18T04:52:14;98612.03;;;10.84;73.78
15674;BME280;7937;48.090;16.212;2022-07-18T04:55:18;98614.56;;;10.86;73.64
15674;BME280;7937;48.090;16.212;2022-07-18T04:58:21;98618.69;;;10.90;73.45
15674;BME280;7937;48.090;16.212;2022-07-18T05:01:23;98613.09;;;10.94;73.64
15674;BME280;7937;48.090;16.212;2022-07-18T05:04:25;98607.91;;;10.93;73.84
15674;BME280;7937;48.090;16.212;2022-07-18T05:07:27;98618.81;;;11.01;74.00
15674;BME280;7937;48.090;16.212;2022-07-18T05:10:29;98596.31;;;11.08;73.87
15674;BME280;7937;48.090;16.212;2022-07-18T05:13:31;98600.34;;;11.14;74.12
15674;BME280;7937;48.090;16.212;2022-07-18T05:16:33;98604.06;;;11.24;74.01
15674;BME280;7937;48.090;16.212;2022-07-18T05:19:36;98610.31;;;11.35;74.11
15674;BME280;7937;48.090;16.212;2022-07-18T05:22:38;98608.47;;;11.48;73.95
15674;BME280;7937;48.090;16.212;2022-07-18T05:25:40;98607.75;;;11.59;74.25
15674;BME280;7937;48.090;16.212;2022-07-18T05:28:43;98606.03;;;11.71;74.44
15674;BME280;7937;48.090;16.212;2022-07-18T05:31:45;98602.38;;;11.86;74.00
15674;BME280;7937;48.090;16.212;2022-07-18T05:34:47;98600.53;;;11.99;74.08
15674;BME280;7937;48.090;16.212;2022-07-18T05:37:50;98596.44;;;12.19;73.63
15674;BME280;7937;48.090;16.212;2022-07-18T05:40:52;98593.19;;;12.39;73.35
15674;BME280;7937;48.090;16.212;2022-07-18T05:43:54;98603.63;;;12.53;73.11
15674;BME280;7937;48.090;16.212;2022-07-18T05:46:56;98605.78;;;12.72;72.38
15674;BME280;7937;48.090;16.212;2022-07-18T05:49:58;98596.22;;;12.93;72.68
15674;BME280;7937;48.090;16.212;2022-07-18T05:53:00;98586.88;;;13.12;72.45
15674;BME280;7937;48.090;16.212;2022-07-18T05:56:02;98593.19;;;13.22;71.76
15674;BME280;7937;48.090;16.212;2022-07-18T05:59:04;98594.06;;;13.34;71.78
15674;BME280;7937;48.090;16.212;2022-07-18T06:02:25;98603.00;;;13.44;72.16
15674;BME280;7937;48.090;16.212;2022-07-18T06:05:27;98594.34;;;13.53;71.16
15674;BME280;7937;48.090;16.212;2022-07-18T06:08:29;98601.09;;;13.57;71.32
15674;BME280;7937;48.090;16.212;2022-07-18T06:11:32;98601.94;;;13.68;71.06
15674;BME280;7937;48.090;16.212;2022-07-18T06:14:34;98605.19;;;13.83;70.43
15674;BME280;7937;48.090;16.212;2022-07-18T06:17:36;98602.16;;;13.88;70.41
15674;BME280;7937;48.090;16.212;2022-07-18T06:20:38;98595.03;;;13.99;69.86
15674;BME280;7937;48.090;16.212;2022-07-18T06:23:40;98596.97;;;14.09;69.91
15674;BME280;7937;48.090;16.212;2022-07-18T06:26:42;98594.41;;;14.18;69.61
15674;BME280;7937;48.090;16.212;2022-07-18T06:29:44;98592.50;;;14.20;69.64
15674;BME280;7937;48.090;16.212;2022-07-18T06:32:46;98594.63;;;14.37;69.26
15674;BME280;7937;48.090;16.212;2022-07-18T06:35:49;98598.09;;;14.60;68.16
15674;BME280;7937;48.090;16.212;2022-07-18T06:38:51;98601.66;;;14.82;67.63
15674;BME280;7937;48.090;16.212;2022-07-18T06:41:53;98590.25;;;15.11;66.90
15674;BME280;7937;48.090;16.212;2022-07-18T06:44:55;98598.31;;;15.42;66.84
15674;BME280;7937;48.090;16.212;2022-07-18T06:47:57;98586.91;;;15.81;65.22
15674;BME280;7937;48.090;16.212;2022-07-18T06:51:00;98590.97;;;16.16;64.64
15674;BME280;7937;48.090;16.212;2022-07-18T06:54:03;98588.38;;;16.45;64.18
15674;BME280;7937;48.090;16.212;2022-07-18T06:57:05;98593.19;;;16.70;63.66
15674;BME280;7937;48.090;16.212;2022-07-18T07:00:13;98584.50;;;17.07;62.41
15674;BME280;7937;48.090;16.212;2022-07-18T07:03:16;98585.50;;;17.62;60.58
15674;BME280;7937;48.090;16.212;2022-07-18T07:06:18;98581.53;;;18.13;59.45
15674;BME280;7937;48.090;16.212;2022-07-18T07:09:20;98579.31;;;18.35;58.94
15674;BME280;7937;48.090;16.212;2022-07-18T07:12:22;98570.06;;;18.48;58.70
15674;BME280;7937;48.090;16.212;2022-07-18T07:15:24;98578.00;;;18.85;57.54
15674;BME280;7937;48.090;16.212;2022-07-18T07:18:26;98564.59;;;19.20;56.68
15674;BME280;7937;48.090;16.212;2022-07-18T07:21:28;98561.22;;;19.62;55.50
15674;BME280;7937;48.090;16.212;2022-07-18T07:24:31;98565.00;;;20.19;53.55
15674;BME280;7937;48.090;16.212;2022-07-18T07:27:33;98560.81;;;20.75;50.92
15674;BME280;7937;48.090;16.212;2022-07-18T07:30:35;98563.19;;;21.26;49.16
15674;BME280;7937;48.090;16.212;2022-07-18T07:33:37;98563.78;;;21.77;46.21
15674;BME280;7937;48.090;16.212;2022-07-18T07:36:39;98564.00;;;22.23;43.09
15674;BME280;7937;48.090;16.212;2022-07-18T07:39:41;98567.38;;;22.56;43.71
15674;BME280;7937;48.090;16.212;2022-07-18T07:42:43;98568.31;;;22.94;39.85
15674;BME280;7937;48.090;16.212;2022-07-18T07:45:47;98563.47;;;23.27;38.69
15674;BME280;7937;48.090;16.212;2022-07-18T07:48:50;98566.47;;;23.69;37.87
15674;BME280;7937;48.090;16.212;2022-07-18T07:51:52;98566.47;;;24.13;37.38
15674;BME280;7937;48.090;16.212;2022-07-18T07:54:54;98562.56;;;24.45;37.80
15674;BME280;7937;48.090;16.212;2022-07-18T07:57:56;98563.31;;;24.75;37.38
15674;BME280;7937;48.090;16.212;2022-07-18T08:00:58;98557.31;;;24.94;35.96
15674;BME280;7937;48.090;16.212;2022-07-18T08:04:00;98563.69;;;25.36;35.26
15674;BME280;7937;48.090;16.212;2022-07-18T08:07:03;98555.72;;;25.56;33.53
15674;BME280;7937;48.090;16.212;2022-07-18T08:10:05;98561.56;;;25.81;32.79
15674;BME280;7937;48.090;16.212;2022-07-18T08:13:07;98561.50;;;26.08;32.55
15674;BME280;7937;48.090;16.212;2022-07-18T08:16:09;98560.03;;;26.47;31.81
15674;BME280;7937;48.090;16.212;2022-07-18T08:19:11;98563.25;;;26.70;32.28
15674;BME280;7937;48.090;16.212;2022-07-18T08:22:13;98568.69;;;26.83;32.01
15674;BME280;7937;48.090;16.212;2022-07-18T08:25:15;98558.34;;;27.00;30.26
15674;BME280;7937;48.090;16.212;2022-07-18T08:28:17;98566.91;;;27.10;30.82
15674;BME280;7937;48.090;16.212;2022-07-18T08:31:20;98566.50;;;27.53;30.81
15674;BME280;7937;48.090;16.212;2022-07-18T08:34:31;98564.38;;;27.95;31.04
15674;BME280;7937;48.090;16.212;2022-07-18T08:37:33;98563.34;;;27.82;29.26
15674;BME280;7937;48.090;16.212;2022-07-18T08:40:37;98568.56;;;27.11;31.73
15674;BME280;7937;48.090;16.212;2022-07-18T08:43:39;98574.84;;;27.32;30.94
15674;BME280;7937;48.090;16.212;2022-07-18T08:46:51;98562.94;;;27.39;30.53
15674;BME280;7937;48.090;16.212;2022-07-18T08:49:54;98573.78;;;27.19;30.54
15674;BME280;7937;48.090;16.212;2022-07-18T08:52:56;98574.84;;;27.45;29.89
15674;BME280;7937;48.090;16.212;2022-07-18T08:55:58;98568.16;;;27.41;28.23
15674;BME280;7937;48.090;16.212;2022-07-18T08:59:03;98565.84;;;27.90;29.25
15674;BME280;7937;48.090;16.212;2022-07-18T09:02:15;98571.50;;;28.53;29.92
15674;BME280;7937;48.090;16.212;2022-07-18T09:05:19;98558.88;;;28.65;28.75
15674;BME280;7937;48.090;16.212;2022-07-18T09:08:38;98562.34;;;28.86;27.70
15674;BME280;7937;48.090;16.212;2022-07-18T09:11:54;98553.66;;;29.09;24.97
15674;BME280;7937;48.090;16.212;2022-07-18T09:15:04;98552.81;;;29.40;25.43
15674;BME280;7937;48.090;16.212;2022-07-18T09:18:06;98551.88;;;29.52;25.65
15674;BME280;7937;48.090;16.212;2022-07-18T09:21:35;98548.41;;;29.39;24.29
15674;BME280;7937;48.090;16.212;2022-07-18T09:28:09;98554.50;;;29.34;24.36
15674;BME280;7937;48.090;16.212;2022-07-18T09:31:20;98546.31;;;29.41;23.36
15674;BME280;7937;48.090;16.212;2022-07-18T09:34:39;98542.63;;;29.28;22.93
15674;BME280;7937;48.090;16.212;2022-07-18T09:38:04;98535.28;;;29.79;23.82
15674;BME280;7937;48.090;16.212;2022-07-18T09:41:10;98542.19;;;30.18;24.26
15674;BME280;7937;48.090;16.212;2022-07-18T09:44:17;98543.69;;;30.68;23.26
15674;BME280;7937;48.090;16.212;2022-07-18T09:47:20;98539.78;;;30.76;24.54
15674;BME280;7937;48.090;16.212;2022-07-18T09:50:24;98540.50;;;30.35;20.83
15674;BME280;7937;48.090;16.212;2022-07-18T09:53:40;98539.75;;;30.46;22.46
15674;BME280;7937;48.090;16.212;2022-07-18T09:56:42;98544.84;;;30.91;20.53
15674;BME280;7937;48.090;16.212;2022-07-18T09:59:44;98541.53;;;31.00;19.90
15674;BME280;7937;48.090;16.212;2022-07-18T10:02:50;98530.72;;;31.35;19.87
15674;BME280;7937;48.090;16.212;2022-07-18T10:05:54;98534.88;;;31.38;20.38
15674;BME280;7937;48.090;16.212;2022-07-18T10:08:57;98518.88;;;31.53;20.91
15674;BME280;7937;48.090;16.212;2022-07-18T10:12:00;98525.47;;;32.15;20.55
15674;BME280;7937;48.090;16.212;2022-07-18T10:15:04;98522.47;;;32.69;19.55
15674;BME280;7937;48.090;16.212;2022-07-18T10:18:09;98526.84;;;32.81;18.74
15674;BME280;7937;48.090;16.212;2022-07-18T10:21:12;98528.03;;;32.45;19.47
15674;BME280;7937;48.090;16.212;2022-07-18T10:24:16;98532.66;;;31.93;19.30
15674;BME280;7937;48.090;16.212;2022-07-18T10:27:20;98522.19;;;32.02;19.16
15674;BME280;7937;48.090;16.212;2022-07-18T10:30:31;98526.47;;;31.86;18.76
15674;BME280;7937;48.090;16.212;2022-07-18T10:39:51;98527.03;;;30.88;19.63
15674;BME280;7937;48.090;16.212;2022-07-18T10:43:45;98520.13;;;30.74;21.19
15674;BME280;7937;48.090;16.212;2022-07-18T10:47:18;98524.88;;;31.08;19.71
15674;BME280;7937;48.090;16.212;2022-07-18T10:50:22;98513.88;;;31.38;19.61
15674;BME280;7937;48.090;16.212;2022-07-18T11:03:13;98494.47;;;33.07;18.69
15674;BME280;7937;48.090;16.212;2022-07-18T11:06:16;98488.16;;;32.61;18.06
15674;BME280;7937;48.090;16.212;2022-07-18T11:12:38;98479.13;;;33.94;18.21
15674;BME280;7937;48.090;16.212;2022-07-18T11:22:17;98473.13;;;32.18;17.46
15674;BME280;7937;48.090;16.212;2022-07-18T11:25:29;98472.72;;;31.75;19.53
15674;BME280;7937;48.090;16.212;2022-07-18T11:29:05;98468.91;;;32.56;18.19
15674;BME280;7937;48.090;16.212;2022-07-18T11:32:20;98456.09;;;33.18;18.01
15674;BME280;7937;48.090;16.212;2022-07-18T11:35:23;98454.25;;;32.74;18.41
15674;BME280;7937;48.090;16.212;2022-07-18T11:38:25;98461.50;;;32.68;18.40
15674;BME280;7937;48.090;16.212;2022-07-18T11:41:27;98454.31;;;33.24;18.13
15674;BME280;7937;48.090;16.212;2022-07-18T11:44:30;98454.69;;;32.54;17.78
15674;BME280;7937;48.090;16.212;2022-07-18T11:47:46;98451.84;;;32.49;16.84
15674;BME280;7937;48.090;16.212;2022-07-18T11:50:49;98447.47;;;32.93;17.60
15674;BME280;7937;48.090;16.212;2022-07-18T11:53:52;98443.44;;;33.67;17.82
15674;BME280;7937;48.090;16.212;2022-07-18T11:56:56;98439.09;;;34.32;17.40
15674;BME280;7937;48.090;16.212;2022-07-18T12:00:00;98429.47;;;34.83;16.87
15674;BME280;7937;48.090;16.212;2022-07-18T12:03:16;98429.06;;;35.33;17.34
15674;BME280;7937;48.090;16.212;2022-07-18T12:06:21;98427.13;;;34.70;16.84
15674;BME280;7937;48.090;16.212;2022-07-18T12:09:27;98422.03;;;34.78;16.48
15674;BME280;7937;48.090;16.212;2022-07-18T12:12:35;98430.03;;;34.58;16.70
15674;BME280;7937;48.090;16.212;2022-07-18T12:15:39;98425.16;;;34.65;16.61
15674;BME280;7937;48.090;16.212;2022-07-18T12:18:52;98421.88;;;34.63;17.54
15674;BME280;7937;48.090;16.212;2022-07-18T12:22:05;98419.72;;;35.34;16.46
15674;BME280;7937;48.090;16.212;2022-07-18T12:25:07;98412.97;;;35.52;16.42
15674;BME280;7937;48.090;16.212;2022-07-18T12:28:17;98411.88;;;36.15;15.66
15674;BME280;7937;48.090;16.212;2022-07-18T12:31:42;98407.94;;;36.89;15.05
15674;BME280;7937;48.090;16.212;2022-07-18T12:35:01;98405.47;;;37.18;14.83
15674;BME280;7937;48.090;16.212;2022-07-18T12:38:11;98397.44;;;37.37;14.91
15674;BME280;7937;48.090;16.212;2022-07-18T12:41:13;98397.75;;;37.20;14.23
15674;BME280;7937;48.090;16.212;2022-07-18T12:44:15;98394.44;;;36.97;14.71
15674;BME280;7937;48.090;16.212;2022-07-18T12:47:17;98399.13;;;36.92;15.20
15674;BME280;7937;48.090;16.212;2022-07-18T12:50:19;98384.53;;;37.22;15.06
15674;BME280;7937;48.090;16.212;2022-07-18T12:53:21;98382.72;;;35.99;15.28
15674;BME280;7937;48.090;16.212;2022-07-18T12:56:24;98385.25;;;35.54;15.57
15674;BME280;7937;48.090;16.212;2022-07-18T12:59:26;98385.94;;;35.81;15.52
15674;BME280;7937;48.090;16.212;2022-07-18T13:02:28;98387.44;;;35.57;15.24
15674;BME280;7937;48.090;16.212;2022-07-18T13:05:30;98383.91;;;35.61;15.89
15674;BME280;7937;48.090;16.212;2022-07-18T13:08:33;98390.81;;;35.22;16.14
15674;BME280;7937;48.090;16.212;2022-07-18T13:11:35;98391.34;;;34.28;16.62
15674;BME280;7937;48.090;16.212;2022-07-18T13:14:37;98384.78;;;34.07;16.60
15674;BME280;7937;48.090;16.212;2022-07-18T13:17:39;98379.38;;;34.98;15.85
15674;BME280;7937;48.090;16.212;2022-07-18T13:20:42;98366.03;;;35.16;16.13
15674;BME280;7937;48.090;16.212;2022-07-18T13:23:44;98366.56;;;35.56;15.18
15674;BME280;7937;48.090;16.212;2022-07-18T13:26:46;98365.09;;;35.90;15.19
15674;BME280;7937;48.090;16.212;2022-07-18T13:29:48;98363.09;;;36.73;14.88
15674;BME280;7937;48.090;16.212;2022-07-18T13:32:50;98353.69;;;36.49;14.73
15674;BME280;7937;48.090;16.212;2022-07-18T13:35:52;98351.13;;;36.02;14.79
15674;BME280;7937;48.090;16.212;2022-07-18T13:38:54;98357.25;;;36.44;15.43
15674;BME280;7937;48.090;16.212;2022-07-18T13:41:57;98351.50;;;36.86;14.88
15674;BME280;7937;48.090;16.212;2022-07-18T13:44:59;98346.84;;;36.92;14.18
15674;BME280;7937;48.090;16.212;2022-07-18T13:48:01;98347.66;;;36.92;14.20
15674;BME280;7937;48.090;16.212;2022-07-18T13:51:05;98348.34;;;37.59;13.02
15674;BME280;7937;48.090;16.212;2022-07-18T13:54:07;98345.94;;;38.12;12.47
15674;BME280;7937;48.090;16.212;2022-07-18T13:57:09;98344.34;;;38.39;12.68
15674;BME280;7937;48.090;16.212;2022-07-18T14:00:12;98342.72;;;38.38;12.66
15674;BME280;7937;48.090;16.212;2022-07-18T14:03:14;98345.38;;;38.54;13.44
15674;BME280;7937;48.090;16.212;2022-07-18T14:06:16;98343.13;;;38.90;13.37
15674;BME280;7937;48.090;16.212;2022-07-18T14:09:19;98346.00;;;39.61;12.30
15674;BME280;7937;48.090;16.212;2022-07-18T14:12:21;98346.22;;;40.26;10.91
15674;BME280;7937;48.090;16.212;2022-07-18T14:15:23;98338.50;;;41.12;9.49
15674;BME280;7937;48.090;16.212;2022-07-18T14:18:26;98330.75;;;42.77;9.24
15674;BME280;7937;48.090;16.212;2022-07-18T14:21:28;98329.38;;;44.75;8.30
15674;BME280;7937;48.090;16.212;2022-07-18T14:24:31;98334.41;;;46.05;7.35
15674;BME280;7937;48.090;16.212;2022-07-18T14:27:33;98327.56;;;46.44;7.26
15674;BME280;7937;48.090;16.212;2022-07-18T14:30:35;98324.28;;;46.21;7.56
15674;BME280;7937;48.090;16.212;2022-07-18T14:33:38;98313.38;;;46.49;7.10
15674;BME280;7937;48.090;16.212;2022-07-18T14:36:40;98316.69;;;47.53;7.33
15674;BME280;7937;48.090;16.212;2022-07-18T14:39:42;98316.56;;;47.74;6.18
15674;BME280;7937;48.090;16.212;2022-07-18T14:42:44;98321.78;;;48.00;6.05
15674;BME280;7937;48.090;16.212;2022-07-18T14:45:47;98309.56;;;49.16;5.30
15674;BME280;7937;48.090;16.212;2022-07-18T14:49:04;98308.97;;;48.51;5.52
15674;BME280;7937;48.090;16.212;2022-07-18T14:52:06;98303.44;;;48.42;5.75
15674;BME280;7937;48.090;16.212;2022-07-18T14:55:09;98299.94;;;48.58;5.39
15674;BME280;7937;48.090;16.212;2022-07-18T14:58:12;98295.91;;;48.71;5.89
15674;BME280;7937;48.090;16.212;2022-07-18T15:01:15;98302.22;;;49.59;5.56
15674;BME280;7937;48.090;16.212;2022-07-18T15:04:19;98305.56;;;49.99;5.02
15674;BME280;7937;48.090;16.212;2022-07-18T15:07:21;98296.59;;;50.48;3.99
15674;BME280;7937;48.090;16.212;2022-07-18T15:10:23;98298.56;;;50.09;4.77
15674;BME280;7937;48.090;16.212;2022-07-18T15:13:25;98292.78;;;49.67;5.13
15674;BME280;7937;48.090;16.212;2022-07-18T15:16:27;98291.50;;;48.86;5.41
15674;BME280;7937;48.090;16.212;2022-07-18T15:19:29;98285.63;;;48.63;6.10
15674;BME280;7937;48.090;16.212;2022-07-18T15:22:31;98286.75;;;48.18;6.01
15674;BME280;7937;48.090;16.212;2022-07-18T15:25:33;98281.78;;;47.99;6.18
15674;BME280;7937;48.090;16.212;2022-07-18T15:28:35;98282.75;;;46.73;6.81
15674;BME280;7937;48.090;16.212;2022-07-18T15:31:38;98282.28;;;45.97;7.30
15674;BME280;7937;48.090;16.212;2022-07-18T15:34:40;98268.16;;;45.72;7.66
15674;BME280;7937;48.090;16.212;2022-07-18T15:37:42;98275.53;;;45.98;7.25
15674;BME280;7937;48.090;16.212;2022-07-18T15:40:44;98274.00;;;45.79;8.33
15674;BME280;7937;48.090;16.212;2022-07-18T15:43:47;98265.66;;;44.48;9.44
15674;BME280;7937;48.090;16.212;2022-07-18T15:46:56;98274.31;;;42.67;11.18
15674;BME280;7937;48.090;16.212;2022-07-18T15:49:58;98273.03;;;41.16;12.28
15674;BME280;7937;48.090;16.212;2022-07-18T15:53:01;98263.81;;;39.91;13.34
15674;BME280;7937;48.090;16.212;2022-07-18T15:56:03;98267.59;;;37.68;14.83
15674;BME280;7937;48.090;16.212;2022-07-18T15:59:06;98265.41;;;36.30;16.66
15674;BME280;7937;48.090;16.212;2022-07-18T16:02:20;98259.00;;;34.69;18.47
15674;BME280;7937;48.090;16.212;2022-07-18T16:05:22;98262.19;;;33.70;20.17
15674;BME280;7937;48.090;16.212;2022-07-18T16:08:25;98257.03;;;32.87;20.81
15674;BME280;7937;48.090;16.212;2022-07-18T16:11:27;98255.31;;;32.81;21.19
15674;BME280;7937;48.090;16.212;2022-07-18T16:14:29;98251.22;;;35.50;19.33
15674;BME280;7937;48.090;16.212;2022-07-18T16:17:31;98252.94;;;38.22;17.15
15674;BME280;7937;48.090;16.212;2022-07-18T16:20:33;98247.78;;;40.06;15.66
15674;BME280;7937;48.090;16.212;2022-07-18T16:23:35;98257.19;;;40.89;15.33
15674;BME280;7937;48.090;16.212;2022-07-18T16:26:37;98248.72;;;40.67;15.21
15674;BME280;7937;48.090;16.212;2022-07-18T16:29:39;98247.72;;;40.11;16.10
15674;BME280;7937;48.090;16.212;2022-07-18T16:32:43;98244.91;;;38.84;17.19
15674;BME280;7937;48.090;16.212;2022-07-18T16:35:45;98242.53;;;35.94;19.54
15674;BME280;7937;48.090;16.212;2022-07-18T16:38:48;98244.22;;;34.06;21.84
15674;BME280;7937;48.090;16.212;2022-07-18T16:41:51;98241.66;;;32.64;23.99
15674;BME280;7937;48.090;16.212;2022-07-18T16:45:01;98246.59;;;31.43;25.76
15674;BME280;7937;48.090;16.212;2022-07-18T16:48:04;98251.44;;;30.31;27.43